Weather at Grapeview Heliport

Public forecast

Using degrees Fahrenheit for public forecast. Weather courtesy of forecast.io.

Closest aviation weather report (METAR) to Grapeview Heliport

Closest report is Bremerton National Airport, 10.2 nm (18.9 km) NNE.

2024/07/14 16:56 (retrieved 27 minutes ago)

KPWT 141656Z AUTO 22003KT 10SM CLR 22/15 A3005 RMK AO2 SLP175 T02220150

Closest aviation forecast (TAF) to Grapeview Heliport

Closest forecast is Bremerton National Airport, 10.2 nm (18.9 km) NNE.

2024/07/14 12:21 (retrieved 5 hours ago)

TAF KPWT 141120Z 1412/1512 VRB02KT P6SM SKC FM141600 22005KT P6SM SKC FM150600 19004KT P6SM SKC FM151000 20003KT P6SM BKN015